sensor_id;sensor_type;location;lat;lon;timestamp;P1;durP1;ratioP1;P2;durP2;ratioP2
6334;SDS011;3200;48.204;11.576;2024-02-16T00:00:18;6.07;;;5.00;;
6334;SDS011;3200;48.204;11.576;2024-02-16T00:02:44;7.35;;;5.38;;
6334;SDS011;3200;48.204;11.576;2024-02-16T00:05:11;6.40;;;4.63;;
6334;SDS011;3200;48.204;11.576;2024-02-16T00:07:37;8.50;;;5.75;;
6334;SDS011;3200;48.204;11.576;2024-02-16T00:10:04;5.47;;;4.30;;
6334;SDS011;3200;48.204;11.576;2024-02-16T00:12:32;7.20;;;4.68;;
6334;SDS011;3200;48.204;11.576;2024-02-16T00:14:59;7.68;;;4.47;;
6334;SDS011;3200;48.204;11.576;2024-02-16T00:17:26;7.07;;;4.90;;
6334;SDS011;3200;48.204;11.576;2024-02-16T00:19:52;7.13;;;4.53;;
6334;SDS011;3200;48.204;11.576;2024-02-16T00:22:19;7.38;;;4.75;;
6334;SDS011;3200;48.204;11.576;2024-02-16T00:24:45;7.82;;;4.57;;
6334;SDS011;3200;48.204;11.576;2024-02-16T00:27:12;5.97;;;4.70;;
6334;SDS011;3200;48.204;11.576;2024-02-16T00:29:38;9.15;;;5.55;;
6334;SDS011;3200;48.204;11.576;2024-02-16T00:32:05;6.85;;;5.35;;
6334;SDS011;3200;48.204;11.576;2024-02-16T00:34:32;11.48;;;6.25;;
6334;SDS011;3200;48.204;11.576;2024-02-16T00:37:00;12.25;;;6.28;;
6334;SDS011;3200;48.204;11.576;2024-02-16T00:39:26;7.88;;;5.00;;
6334;SDS011;3200;48.204;11.576;2024-02-16T00:41:52;7.07;;;5.20;;
6334;SDS011;3200;48.204;11.576;2024-02-16T00:44:18;6.68;;;4.70;;
6334;SDS011;3200;48.204;11.576;2024-02-16T00:46:44;6.03;;;4.60;;
6334;SDS011;3200;48.204;11.576;2024-02-16T00:49:10;5.88;;;4.45;;
6334;SDS011;3200;48.204;11.576;2024-02-16T00:51:39;7.67;;;4.70;;
6334;SDS011;3200;48.204;11.576;2024-02-16T00:54:05;9.40;;;5.90;;
6334;SDS011;3200;48.204;11.576;2024-02-16T00:56:32;7.28;;;5.00;;
6334;SDS011;3200;48.204;11.576;2024-02-16T00:58:58;6.90;;;5.38;;
6334;SDS011;3200;48.204;11.576;2024-02-16T01:01:24;7.63;;;4.90;;
6334;SDS011;3200;48.204;11.576;2024-02-16T01:03:51;6.65;;;4.32;;
6334;SDS011;3200;48.204;11.576;2024-02-16T01:06:18;6.82;;;4.72;;
6334;SDS011;3200;48.204;11.576;2024-02-16T01:08:44;8.65;;;5.10;;
6334;SDS011;3200;48.204;11.576;2024-02-16T01:11:11;9.90;;;5.80;;
6334;SDS011;3200;48.204;11.576;2024-02-16T01:13:40;10.70;;;5.68;;
6334;SDS011;3200;48.204;11.576;2024-02-16T01:16:08;7.20;;;5.15;;
6334;SDS011;3200;48.204;11.576;2024-02-16T01:18:34;11.85;;;5.15;;
6334;SDS011;3200;48.204;11.576;2024-02-16T01:21:02;7.55;;;4.43;;
6334;SDS011;3200;48.204;11.576;2024-02-16T01:23:28;7.80;;;4.63;;
6334;SDS011;3200;48.204;11.576;2024-02-16T01:25:55;5.38;;;4.47;;
6334;SDS011;3200;48.204;11.576;2024-02-16T01:28:21;8.50;;;3.90;;
6334;SDS011;3200;48.204;11.576;2024-02-16T01:30:48;6.50;;;4.63;;
6334;SDS011;3200;48.204;11.576;2024-02-16T01:33:14;7.25;;;4.15;;
6334;SDS011;3200;48.204;11.576;2024-02-16T01:35:40;7.40;;;4.17;;
6334;SDS011;3200;48.204;11.576;2024-02-16T01:38:06;6.90;;;4.55;;
6334;SDS011;3200;48.204;11.576;2024-02-16T01:40:32;7.20;;;4.00;;
6334;SDS011;3200;48.204;11.576;2024-02-16T01:42:58;8.55;;;3.95;;
6334;SDS011;3200;48.204;11.576;2024-02-16T01:45:24;8.60;;;5.70;;
6334;SDS011;3200;48.204;11.576;2024-02-16T01:47:50;7.70;;;4.27;;
6334;SDS011;3200;48.204;11.576;2024-02-16T01:50:18;6.70;;;4.50;;
6334;SDS011;3200;48.204;11.576;2024-02-16T01:52:45;8.82;;;5.15;;
6334;SDS011;3200;48.204;11.576;2024-02-16T01:55:14;6.35;;;4.45;;
6334;SDS011;3200;48.204;11.576;2024-02-16T01:57:45;7.07;;;4.85;;
6334;SDS011;3200;48.204;11.576;2024-02-16T02:00:12;6.40;;;3.72;;
6334;SDS011;3200;48.204;11.576;2024-02-16T02:02:40;7.05;;;3.95;;
6334;SDS011;3200;48.204;11.576;2024-02-16T02:05:09;5.82;;;3.90;;
6334;SDS011;3200;48.204;11.576;2024-02-16T02:07:36;5.30;;;3.88;;
6334;SDS011;3200;48.204;11.576;2024-02-16T02:10:02;6.93;;;5.00;;
6334;SDS011;3200;48.204;11.576;2024-02-16T02:12:29;6.22;;;4.18;;
6334;SDS011;3200;48.204;11.576;2024-02-16T02:14:55;6.97;;;3.92;;
6334;SDS011;3200;48.204;11.576;2024-02-16T02:17:20;8.97;;;3.67;;
6334;SDS011;3200;48.204;11.576;2024-02-16T02:19:46;6.33;;;3.90;;
6334;SDS011;3200;48.204;11.576;2024-02-16T02:22:16;6.13;;;3.70;;
6334;SDS011;3200;48.204;11.576;2024-02-16T02:24:47;5.60;;;3.28;;
6334;SDS011;3200;48.204;11.576;2024-02-16T02:27:16;4.55;;;3.67;;
6334;SDS011;3200;48.204;11.576;2024-02-16T02:29:42;4.20;;;3.10;;
6334;SDS011;3200;48.204;11.576;2024-02-16T02:32:09;6.85;;;3.80;;
6334;SDS011;3200;48.204;11.576;2024-02-16T02:34:35;9.20;;;4.70;;
6334;SDS011;3200;48.204;11.576;2024-02-16T02:37:01;7.47;;;4.45;;
6334;SDS011;3200;48.204;11.576;2024-02-16T02:39:29;7.30;;;5.00;;
6334;SDS011;3200;48.204;11.576;2024-02-16T02:41:57;13.77;;;6.47;;
6334;SDS011;3200;48.204;11.576;2024-02-16T02:44:23;9.57;;;6.20;;
6334;SDS011;3200;48.204;11.576;2024-02-16T02:46:50;9.05;;;4.90;;
6334;SDS011;3200;48.204;11.576;2024-02-16T02:49:17;7.75;;;5.22;;
6334;SDS011;3200;48.204;11.576;2024-02-16T02:51:43;8.35;;;4.68;;
6334;SDS011;3200;48.204;11.576;2024-02-16T02:54:09;7.43;;;5.20;;
6334;SDS011;3200;48.204;11.576;2024-02-16T02:56:35;7.17;;;4.50;;
6334;SDS011;3200;48.204;11.576;2024-02-16T02:59:01;7.07;;;3.92;;
6334;SDS011;3200;48.204;11.576;2024-02-16T03:01:27;7.88;;;4.90;;
6334;SDS011;3200;48.204;11.576;2024-02-16T03:03:53;11.05;;;4.93;;
6334;SDS011;3200;48.204;11.576;2024-02-16T03:06:19;6.17;;;4.10;;
6334;SDS011;3200;48.204;11.576;2024-02-16T03:08:46;7.30;;;4.25;;
6334;SDS011;3200;48.204;11.576;2024-02-16T03:11:12;6.75;;;4.00;;
6334;SDS011;3200;48.204;11.576;2024-02-16T03:13:38;7.45;;;4.22;;
6334;SDS011;3200;48.204;11.576;2024-02-16T03:16:03;9.80;;;4.63;;
6334;SDS011;3200;48.204;11.576;2024-02-16T03:18:30;9.30;;;4.53;;
6334;SDS011;3200;48.204;11.576;2024-02-16T03:20:57;9.15;;;4.35;;
6334;SDS011;3200;48.204;11.576;2024-02-16T03:23:23;7.43;;;3.72;;
6334;SDS011;3200;48.204;11.576;2024-02-16T03:25:49;7.25;;;3.90;;
6334;SDS011;3200;48.204;11.576;2024-02-16T03:28:15;9.90;;;3.55;;
6334;SDS011;3200;48.204;11.576;2024-02-16T03:30:42;11.00;;;3.50;;
6334;SDS011;3200;48.204;11.576;2024-02-16T03:33:09;7.70;;;3.40;;
6334;SDS011;3200;48.204;11.576;2024-02-16T03:35:35;8.13;;;3.42;;
6334;SDS011;3200;48.204;11.576;2024-02-16T03:38:05;6.32;;;3.55;;
6334;SDS011;3200;48.204;11.576;2024-02-16T03:40:31;5.85;;;3.42;;
6334;SDS011;3200;48.204;11.576;2024-02-16T03:42:57;10.75;;;3.20;;
6334;SDS011;3200;48.204;11.576;2024-02-16T03:45:24;5.32;;;3.05;;
6334;SDS011;3200;48.204;11.576;2024-02-16T03:47:52;6.45;;;3.28;;
6334;SDS011;3200;48.204;11.576;2024-02-16T03:50:18;8.75;;;3.25;;
6334;SDS011;3200;48.204;11.576;2024-02-16T03:52:45;6.38;;;3.33;;
6334;SDS011;3200;48.204;11.576;2024-02-16T03:55:11;3.88;;;2.80;;
6334;SDS011;3200;48.204;11.576;2024-02-16T03:57:37;3.43;;;2.70;;
6334;SDS011;3200;48.204;11.576;2024-02-16T04:00:05;4.78;;;2.55;;
6334;SDS011;3200;48.204;11.576;2024-02-16T04:02:32;5.38;;;3.15;;
6334;SDS011;3200;48.204;11.576;2024-02-16T04:04:58;5.80;;;2.70;;
6334;SDS011;3200;48.204;11.576;2024-02-16T04:07:23;4.13;;;3.20;;
6334;SDS011;3200;48.204;11.576;2024-02-16T04:09:49;4.27;;;2.00;;
6334;SDS011;3200;48.204;11.576;2024-02-16T04:12:15;2.80;;;2.25;;
6334;SDS011;3200;48.204;11.576;2024-02-16T04:14:41;4.72;;;2.38;;
6334;SDS011;3200;48.204;11.576;2024-02-16T04:17:08;3.70;;;2.40;;
6334;SDS011;3200;48.204;11.576;2024-02-16T04:19:36;5.10;;;2.85;;
6334;SDS011;3200;48.204;11.576;2024-02-16T04:22:02;4.47;;;2.40;;
6334;SDS011;3200;48.204;11.576;2024-02-16T04:24:29;3.88;;;2.67;;
6334;SDS011;3200;48.204;11.576;2024-02-16T04:26:54;3.90;;;2.40;;
6334;SDS011;3200;48.204;11.576;2024-02-16T04:29:20;3.60;;;1.70;;
6334;SDS011;3200;48.204;11.576;2024-02-16T04:31:46;3.50;;;2.63;;
6334;SDS011;3200;48.204;11.576;2024-02-16T04:34:13;4.68;;;2.20;;
6334;SDS011;3200;48.204;11.576;2024-02-16T04:36:39;8.85;;;2.65;;
6334;SDS011;3200;48.204;11.576;2024-02-16T04:39:05;2.58;;;1.73;;
6334;SDS011;3200;48.204;11.576;2024-02-16T04:41:31;2.40;;;2.00;;
6334;SDS011;3200;48.204;11.576;2024-02-16T04:43:57;3.60;;;2.70;;
6334;SDS011;3200;48.204;11.576;2024-02-16T04:46:23;3.77;;;2.30;;
6334;SDS011;3200;48.204;11.576;2024-02-16T04:48:49;4.03;;;3.05;;
6334;SDS011;3200;48.204;11.576;2024-02-16T04:51:15;3.13;;;2.07;;
6334;SDS011;3200;48.204;11.576;2024-02-16T04:53:41;2.87;;;2.03;;
6334;SDS011;3200;48.204;11.576;2024-02-16T04:56:06;4.70;;;2.50;;
6334;SDS011;3200;48.204;11.576;2024-02-16T04:58:33;4.25;;;2.10;;
6334;SDS011;3200;48.204;11.576;2024-02-16T05:00:59;2.73;;;1.97;;
6334;SDS011;3200;48.204;11.576;2024-02-16T05:03:24;6.27;;;2.30;;
6334;SDS011;3200;48.204;11.576;2024-02-16T05:05:50;4.70;;;2.37;;
6334;SDS011;3200;48.204;11.576;2024-02-16T05:08:17;2.97;;;2.00;;
6334;SDS011;3200;48.204;11.576;2024-02-16T05:10:43;4.20;;;2.50;;
6334;SDS011;3200;48.204;11.576;2024-02-16T05:13:09;4.00;;;2.60;;
6334;SDS011;3200;48.204;11.576;2024-02-16T05:15:37;3.25;;;2.05;;
6334;SDS011;3200;48.204;11.576;2024-02-16T05:18:03;4.68;;;3.15;;
6334;SDS011;3200;48.204;11.576;2024-02-16T05:20:29;3.45;;;2.20;;
6334;SDS011;3200;48.204;11.576;2024-02-16T05:22:55;3.77;;;2.30;;
6334;SDS011;3200;48.204;11.576;2024-02-16T05:25:21;3.97;;;1.95;;
6334;SDS011;3200;48.204;11.576;2024-02-16T05:27:47;3.85;;;1.85;;
6334;SDS011;3200;48.204;11.576;2024-02-16T05:30:13;27.83;;;16.97;;
6334;SDS011;3200;48.204;11.576;2024-02-16T05:32:40;9.85;;;7.20;;
6334;SDS011;3200;48.204;11.576;2024-02-16T05:35:08;3.58;;;2.50;;
6334;SDS011;3200;48.204;11.576;2024-02-16T05:37:48;2.92;;;2.03;;
6334;SDS011;3200;48.204;11.576;2024-02-16T05:40:16;3.53;;;1.95;;
6334;SDS011;3200;48.204;11.576;2024-02-16T05:42:54;3.28;;;1.88;;
6334;SDS011;3200;48.204;11.576;2024-02-16T05:45:23;3.80;;;2.28;;
6334;SDS011;3200;48.204;11.576;2024-02-16T05:47:49;4.40;;;3.15;;
6334;SDS011;3200;48.204;11.576;2024-02-16T05:50:16;3.92;;;1.70;;
6334;SDS011;3200;48.204;11.576;2024-02-16T05:52:43;4.18;;;1.63;;
6334;SDS011;3200;48.204;11.576;2024-02-16T05:55:10;5.43;;;2.20;;
6334;SDS011;3200;48.204;11.576;2024-02-16T05:57:37;6.80;;;5.07;;
6334;SDS011;3200;48.204;11.576;2024-02-16T06:00:04;6.22;;;3.40;;
6334;SDS011;3200;48.204;11.576;2024-02-16T06:02:32;11.55;;;7.82;;
6334;SDS011;3200;48.204;11.576;2024-02-16T06:04:59;4.10;;;2.40;;
6334;SDS011;3200;48.204;11.576;2024-02-16T06:07:27;6.35;;;2.40;;
6334;SDS011;3200;48.204;11.576;2024-02-16T06:09:54;3.20;;;1.85;;
6334;SDS011;3200;48.204;11.576;2024-02-16T06:12:21;4.13;;;1.75;;
6334;SDS011;3200;48.204;11.576;2024-02-16T06:14:47;11.68;;;2.35;;
6334;SDS011;3200;48.204;11.576;2024-02-16T06:17:13;2.70;;;1.73;;
6334;SDS011;3200;48.204;11.576;2024-02-16T06:19:43;3.22;;;2.50;;
6334;SDS011;3200;48.204;11.576;2024-02-16T06:22:09;4.20;;;1.88;;
6334;SDS011;3200;48.204;11.576;2024-02-16T06:24:36;6.97;;;2.22;;
6334;SDS011;3200;48.204;11.576;2024-02-16T06:27:02;4.10;;;2.08;;
6334;SDS011;3200;48.204;11.576;2024-02-16T06:29:29;2.28;;;1.80;;
6334;SDS011;3200;48.204;11.576;2024-02-16T06:31:55;2.85;;;2.10;;
6334;SDS011;3200;48.204;11.576;2024-02-16T06:34:22;6.63;;;2.60;;
6334;SDS011;3200;48.204;11.576;2024-02-16T06:36:48;5.03;;;1.88;;
6334;SDS011;3200;48.204;11.576;2024-02-16T06:39:15;6.30;;;3.53;;
6334;SDS011;3200;48.204;11.576;2024-02-16T06:41:45;3.22;;;2.10;;
6334;SDS011;3200;48.204;11.576;2024-02-16T06:44:12;5.07;;;2.50;;
6334;SDS011;3200;48.204;11.576;2024-02-16T06:46:39;5.50;;;2.53;;
6334;SDS011;3200;48.204;11.576;2024-02-16T06:49:05;7.40;;;2.38;;
6334;SDS011;3200;48.204;11.576;2024-02-16T06:51:31;3.17;;;2.55;;
6334;SDS011;3200;48.204;11.576;2024-02-16T06:53:57;4.70;;;2.57;;
6334;SDS011;3200;48.204;11.576;2024-02-16T06:56:23;5.97;;;2.73;;
6334;SDS011;3200;48.204;11.576;2024-02-16T06:58:49;4.43;;;2.45;;
6334;SDS011;3200;48.204;11.576;2024-02-16T07:01:16;5.78;;;2.50;;
6334;SDS011;3200;48.204;11.576;2024-02-16T07:03:44;8.20;;;2.40;;
6334;SDS011;3200;48.204;11.576;2024-02-16T07:06:11;5.85;;;2.08;;
6334;SDS011;3200;48.204;11.576;2024-02-16T07:08:41;3.22;;;2.08;;
6334;SDS011;3200;48.204;11.576;2024-02-16T07:11:09;53.60;;;6.40;;
6334;SDS011;3200;48.204;11.576;2024-02-16T07:13:41;12.73;;;3.35;;
6334;SDS011;3200;48.204;11.576;2024-02-16T07:16:08;4.35;;;2.65;;
6334;SDS011;3200;48.204;11.576;2024-02-16T07:18:34;12.57;;;2.90;;
6334;SDS011;3200;48.204;11.576;2024-02-16T07:21:00;15.40;;;3.38;;
6334;SDS011;3200;48.204;11.576;2024-02-16T07:23:27;4.75;;;2.47;;
6334;SDS011;3200;48.204;11.576;2024-02-16T07:25:54;3.38;;;2.40;;
6334;SDS011;3200;48.204;11.576;2024-02-16T07:28:24;3.72;;;2.50;;
6334;SDS011;3200;48.204;11.576;2024-02-16T07:30:53;12.20;;;3.25;;
6334;SDS011;3200;48.204;11.576;2024-02-16T07:33:20;3.72;;;2.20;;
6334;SDS011;3200;48.204;11.576;2024-02-16T07:35:46;4.90;;;2.63;;
6334;SDS011;3200;48.204;11.576;2024-02-16T07:38:13;6.40;;;3.65;;
6334;SDS011;3200;48.204;11.576;2024-02-16T07:40:39;5.05;;;3.95;;
6334;SDS011;3200;48.204;11.576;2024-02-16T07:43:04;5.10;;;3.43;;
6334;SDS011;3200;48.204;11.576;2024-02-16T07:45:30;6.75;;;3.42;;
6334;SDS011;3200;48.204;11.576;2024-02-16T07:47:57;14.40;;;3.35;;
6334;SDS011;3200;48.204;11.576;2024-02-16T07:50:22;4.70;;;3.07;;
6334;SDS011;3200;48.204;11.576;2024-02-16T07:52:49;3.75;;;3.00;;
6334;SDS011;3200;48.204;11.576;2024-02-16T07:55:16;5.53;;;3.60;;
6334;SDS011;3200;48.204;11.576;2024-02-16T07:57:49;4.78;;;3.50;;
6334;SDS011;3200;48.204;11.576;2024-02-16T08:00:17;6.68;;;2.83;;
6334;SDS011;3200;48.204;11.576;2024-02-16T08:02:43;6.47;;;2.88;;
6334;SDS011;3200;48.204;11.576;2024-02-16T08:05:12;5.80;;;2.20;;
6334;SDS011;3200;48.204;11.576;2024-02-16T08:07:39;10.70;;;2.15;;
6334;SDS011;3200;48.204;11.576;2024-02-16T08:10:09;8.90;;;2.40;;
6334;SDS011;3200;48.204;11.576;2024-02-16T08:12:35;3.40;;;1.70;;
6334;SDS011;3200;48.204;11.576;2024-02-16T08:15:02;8.27;;;3.27;;
6334;SDS011;3200;48.204;11.576;2024-02-16T08:17:31;9.50;;;2.67;;
6334;SDS011;3200;48.204;11.576;2024-02-16T08:20:01;7.28;;;2.70;;
6334;SDS011;3200;48.204;11.576;2024-02-16T08:22:28;5.82;;;2.50;;
6334;SDS011;3200;48.204;11.576;2024-02-16T08:24:54;7.80;;;2.23;;
6334;SDS011;3200;48.204;11.576;2024-02-16T08:27:20;3.73;;;2.40;;
6334;SDS011;3200;48.204;11.576;2024-02-16T08:29:46;7.75;;;1.90;;
6334;SDS011;3200;48.204;11.576;2024-02-16T08:32:11;5.63;;;2.10;;
6334;SDS011;3200;48.204;11.576;2024-02-16T08:34:38;2.30;;;1.60;;
6334;SDS011;3200;48.204;11.576;2024-02-16T08:37:04;2.90;;;1.70;;
6334;SDS011;3200;48.204;11.576;2024-02-16T08:39:31;4.15;;;2.13;;
6334;SDS011;3200;48.204;11.576;2024-02-16T08:41:59;4.70;;;1.85;;
6334;SDS011;3200;48.204;11.576;2024-02-16T08:44:25;5.70;;;2.87;;
6334;SDS011;3200;48.204;11.576;2024-02-16T08:46:51;5.70;;;2.50;;
6334;SDS011;3200;48.204;11.576;2024-02-16T08:49:18;3.35;;;2.40;;
6334;SDS011;3200;48.204;11.576;2024-02-16T08:51:44;3.85;;;2.42;;
6334;SDS011;3200;48.204;11.576;2024-02-16T08:54:26;6.70;;;2.50;;
6334;SDS011;3200;48.204;11.576;2024-02-16T08:56:55;4.50;;;2.20;;
6334;SDS011;3200;48.204;11.576;2024-02-16T08:59:21;3.42;;;2.40;;
6334;SDS011;3200;48.204;11.576;2024-02-16T09:01:47;2.67;;;1.80;;
6334;SDS011;3200;48.204;11.576;2024-02-16T09:04:13;4.13;;;1.70;;
6334;SDS011;3200;48.204;11.576;2024-02-16T09:06:38;4.40;;;2.10;;
6334;SDS011;3200;48.204;11.576;2024-02-16T09:09:04;3.70;;;2.00;;
6334;SDS011;3200;48.204;11.576;2024-02-16T09:11:32;6.10;;;2.35;;
6334;SDS011;3200;48.204;11.576;2024-02-16T09:13:59;3.50;;;2.38;;
6334;SDS011;3200;48.204;11.576;2024-02-16T09:16:25;4.63;;;1.88;;
6334;SDS011;3200;48.204;11.576;2024-02-16T09:18:53;2.67;;;1.50;;
6334;SDS011;3200;48.204;11.576;2024-02-16T09:21:18;3.80;;;2.00;;
6334;SDS011;3200;48.204;11.576;2024-02-16T09:23:44;4.97;;;2.03;;
6334;SDS011;3200;48.204;11.576;2024-02-16T09:26:10;6.35;;;1.77;;
6334;SDS011;3200;48.204;11.576;2024-02-16T09:28:40;5.53;;;1.77;;
6334;SDS011;3200;48.204;11.576;2024-02-16T09:31:06;2.97;;;2.00;;
6334;SDS011;3200;48.204;11.576;2024-02-16T09:33:33;2.83;;;2.13;;
6334;SDS011;3200;48.204;11.576;2024-02-16T09:36:04;6.43;;;2.67;;
6334;SDS011;3200;48.204;11.576;2024-02-16T09:38:34;5.50;;;2.75;;
6334;SDS011;3200;48.204;11.576;2024-02-16T09:41:00;4.93;;;2.90;;
6334;SDS011;3200;48.204;11.576;2024-02-16T09:43:28;5.00;;;3.35;;
6334;SDS011;3200;48.204;11.576;2024-02-16T09:45:58;7.75;;;6.35;;
6334;SDS011;3200;48.204;11.576;2024-02-16T09:48:28;4.47;;;2.20;;
6334;SDS011;3200;48.204;11.576;2024-02-16T09:50:54;3.70;;;2.33;;
6334;SDS011;3200;48.204;11.576;2024-02-16T09:53:33;3.45;;;2.50;;
6334;SDS011;3200;48.204;11.576;2024-02-16T09:55:58;2.05;;;1.67;;
6334;SDS011;3200;48.204;11.576;2024-02-16T09:58:26;5.03;;;2.38;;
6334;SDS011;3200;48.204;11.576;2024-02-16T10:00:54;2.25;;;1.52;;
6334;SDS011;3200;48.204;11.576;2024-02-16T10:03:22;2.83;;;1.73;;
6334;SDS011;3200;48.204;11.576;2024-02-16T10:05:53;3.85;;;2.55;;
6334;SDS011;3200;48.204;11.576;2024-02-16T10:08:52;7.38;;;4.75;;
6334;SDS011;3200;48.204;11.576;2024-02-16T10:11:23;5.63;;;4.10;;
6334;SDS011;3200;48.204;11.576;2024-02-16T10:13:56;3.95;;;1.80;;
6334;SDS011;3200;48.204;11.576;2024-02-16T10:16:24;2.97;;;1.50;;
6334;SDS011;3200;48.204;11.576;2024-02-16T10:18:54;2.55;;;1.45;;
6334;SDS011;3200;48.204;11.576;2024-02-16T10:25:08;2.10;;;1.65;;
6334;SDS011;3200;48.204;11.576;2024-02-16T10:27:45;3.03;;;1.80;;
6334;SDS011;3200;48.204;11.576;2024-02-16T10:30:12;2.75;;;1.45;;
6334;SDS011;3200;48.204;11.576;2024-02-16T10:32:38;2.20;;;1.40;;
6334;SDS011;3200;48.204;11.576;2024-02-16T10:35:06;4.43;;;1.60;;
6334;SDS011;3200;48.204;11.576;2024-02-16T10:37:34;4.82;;;1.50;;
6334;SDS011;3200;48.204;11.576;2024-02-16T10:40:00;2.22;;;1.20;;
6334;SDS011;3200;48.204;11.576;2024-02-16T10:42:27;2.22;;;1.25;;
6334;SDS011;3200;48.204;11.576;2024-02-16T10:44:55;2.88;;;1.80;;
6334;SDS011;3200;48.204;11.576;2024-02-16T10:47:22;2.47;;;1.80;;
6334;SDS011;3200;48.204;11.576;2024-02-16T10:49:48;2.13;;;1.47;;
6334;SDS011;3200;48.204;11.576;2024-02-16T10:52:14;3.40;;;1.63;;
6334;SDS011;3200;48.204;11.576;2024-02-16T10:54:42;2.45;;;1.35;;
6334;SDS011;3200;48.204;11.576;2024-02-16T10:57:08;2.33;;;1.47;;
6334;SDS011;3200;48.204;11.576;2024-02-16T10:59:53;3.65;;;3.08;;
6334;SDS011;3200;48.204;11.576;2024-02-16T11:02:20;6.03;;;4.18;;
6334;SDS011;3200;48.204;11.576;2024-02-16T11:04:46;4.63;;;2.00;;
6334;SDS011;3200;48.204;11.576;2024-02-16T11:07:15;5.25;;;2.35;;
6334;SDS011;3200;48.204;11.576;2024-02-16T11:09:43;3.50;;;1.63;;
6334;SDS011;3200;48.204;11.576;2024-02-16T11:12:13;2.88;;;2.10;;
6334;SDS011;3200;48.204;11.576;2024-02-16T11:17:08;2.75;;;1.42;;
6334;SDS011;3200;48.204;11.576;2024-02-16T11:19:42;3.60;;;1.60;;
6334;SDS011;3200;48.204;11.576;2024-02-16T11:22:09;5.07;;;2.00;;
6334;SDS011;3200;48.204;11.576;2024-02-16T11:24:37;2.22;;;1.40;;
6334;SDS011;3200;48.204;11.576;2024-02-16T11:27:11;3.92;;;1.50;;
6334;SDS011;3200;48.204;11.576;2024-02-16T11:29:40;3.63;;;1.50;;
6334;SDS011;3200;48.204;11.576;2024-02-16T11:32:06;3.63;;;1.70;;
6334;SDS011;3200;48.204;11.576;2024-02-16T11:34:33;3.25;;;2.45;;
6334;SDS011;3200;48.204;11.576;2024-02-16T11:37:00;2.50;;;1.52;;
6334;SDS011;3200;48.204;11.576;2024-02-16T11:39:27;2.08;;;1.42;;
6334;SDS011;3200;48.204;11.576;2024-02-16T11:42:00;6.05;;;1.90;;
6334;SDS011;3200;48.204;11.576;2024-02-16T11:44:37;3.55;;;1.70;;
6334;SDS011;3200;48.204;11.576;2024-02-16T11:47:05;4.88;;;2.90;;
6334;SDS011;3200;48.204;11.576;2024-02-16T11:49:37;4.13;;;1.83;;
6334;SDS011;3200;48.204;11.576;2024-02-16T11:52:04;6.32;;;1.40;;
6334;SDS011;3200;48.204;11.576;2024-02-16T11:54:30;4.20;;;2.25;;
6334;SDS011;3200;48.204;11.576;2024-02-16T11:56:57;3.55;;;2.20;;
6334;SDS011;3200;48.204;11.576;2024-02-16T11:59:23;2.63;;;1.88;;
6334;SDS011;3200;48.204;11.576;2024-02-16T12:04:24;2.35;;;1.63;;
6334;SDS011;3200;48.204;11.576;2024-02-16T12:06:58;3.42;;;2.15;;
6334;SDS011;3200;48.204;11.576;2024-02-16T12:09:26;3.40;;;1.75;;
6334;SDS011;3200;48.204;11.576;2024-02-16T12:11:53;3.92;;;1.55;;
6334;SDS011;3200;48.204;11.576;2024-02-16T12:14:23;6.15;;;2.05;;
6334;SDS011;3200;48.204;11.576;2024-02-16T12:16:55;2.95;;;1.55;;
6334;SDS011;3200;48.204;11.576;2024-02-16T12:19:23;6.63;;;1.70;;
6334;SDS011;3200;48.204;11.576;2024-02-16T12:21:54;8.38;;;1.90;;
6334;SDS011;3200;48.204;11.576;2024-02-16T12:24:24;5.45;;;1.60;;
6334;SDS011;3200;48.204;11.576;2024-02-16T12:26:50;4.45;;;1.52;;
6334;SDS011;3200;48.204;11.576;2024-02-16T12:29:16;2.47;;;1.67;;
6334;SDS011;3200;48.204;11.576;2024-02-16T12:31:42;1.90;;;1.40;;
6334;SDS011;3200;48.204;11.576;2024-02-16T12:34:10;3.90;;;1.70;;
6334;SDS011;3200;48.204;11.576;2024-02-16T12:36:40;7.82;;;2.08;;
6334;SDS011;3200;48.204;11.576;2024-02-16T12:39:07;2.55;;;1.40;;
6334;SDS011;3200;48.204;11.576;2024-02-16T12:41:37;2.75;;;1.35;;
6334;SDS011;3200;48.204;11.576;2024-02-16T12:44:04;4.90;;;1.50;;
6334;SDS011;3200;48.204;11.576;2024-02-16T12:46:30;3.72;;;2.35;;
6334;SDS011;3200;48.204;11.576;2024-02-16T12:48:57;2.95;;;1.75;;
6334;SDS011;3200;48.204;11.576;2024-02-16T12:51:23;5.17;;;2.30;;
6334;SDS011;3200;48.204;11.576;2024-02-16T12:53:48;2.37;;;1.77;;
6334;SDS011;3200;48.204;11.576;2024-02-16T12:56:14;4.30;;;1.80;;
6334;SDS011;3200;48.204;11.576;2024-02-16T12:58:41;2.65;;;1.50;;
6334;SDS011;3200;48.204;11.576;2024-02-16T13:01:07;3.37;;;1.47;;
6334;SDS011;3200;48.204;11.576;2024-02-16T13:03:37;6.22;;;1.40;;
6334;SDS011;3200;48.204;11.576;2024-02-16T13:06:04;2.58;;;1.48;;
6334;SDS011;3200;48.204;11.576;2024-02-16T13:08:30;2.88;;;1.48;;
6334;SDS011;3200;48.204;11.576;2024-02-16T13:10:57;6.80;;;1.40;;
6334;SDS011;3200;48.204;11.576;2024-02-16T13:13:24;3.00;;;1.33;;
6334;SDS011;3200;48.204;11.576;2024-02-16T13:15:50;4.05;;;1.75;;
6334;SDS011;3200;48.204;11.576;2024-02-16T13:18:16;2.70;;;1.60;;
6334;SDS011;3200;48.204;11.576;2024-02-16T13:20:43;4.40;;;2.00;;
6334;SDS011;3200;48.204;11.576;2024-02-16T13:23:09;6.00;;;1.65;;
6334;SDS011;3200;48.204;11.576;2024-02-16T13:25:35;4.23;;;1.63;;
6334;SDS011;3200;48.204;11.576;2024-02-16T13:28:02;2.25;;;1.40;;
6334;SDS011;3200;48.204;11.576;2024-02-16T13:30:40;3.45;;;1.40;;
6334;SDS011;3200;48.204;11.576;2024-02-16T13:33:09;4.15;;;1.83;;
6334;SDS011;3200;48.204;11.576;2024-02-16T13:35:40;4.05;;;1.80;;
6334;SDS011;3200;48.204;11.576;2024-02-16T13:38:06;3.90;;;1.57;;
6334;SDS011;3200;48.204;11.576;2024-02-16T13:40:32;2.90;;;1.43;;
6334;SDS011;3200;48.204;11.576;2024-02-16T13:43:04;5.00;;;1.92;;
6334;SDS011;3200;48.204;11.576;2024-02-16T13:45:46;3.05;;;1.60;;
6334;SDS011;3200;48.204;11.576;2024-02-16T13:48:19;7.80;;;1.98;;
6334;SDS011;3200;48.204;11.576;2024-02-16T13:50:46;3.33;;;1.33;;
6334;SDS011;3200;48.204;11.576;2024-02-16T13:54:07;4.25;;;2.50;;
6334;SDS011;3200;48.204;11.576;2024-02-16T13:56:31;5.75;;;1.95;;
6334;SDS011;3200;48.204;11.576;2024-02-16T13:58:57;6.17;;;2.30;;
6334;SDS011;3200;48.204;11.576;2024-02-16T14:01:23;3.33;;;1.83;;
6334;SDS011;3200;48.204;11.576;2024-02-16T14:03:49;2.95;;;1.98;;
6334;SDS011;3200;48.204;11.576;2024-02-16T14:06:16;4.00;;;1.90;;
6334;SDS011;3200;48.204;11.576;2024-02-16T14:08:42;8.82;;;2.60;;
6334;SDS011;3200;48.204;11.576;2024-02-16T14:11:07;3.50;;;1.60;;
6334;SDS011;3200;48.204;11.576;2024-02-16T14:13:34;3.47;;;1.70;;
6334;SDS011;3200;48.204;11.576;2024-02-16T14:16:00;5.50;;;1.90;;
6334;SDS011;3200;48.204;11.576;2024-02-16T14:18:26;3.47;;;2.17;;
6334;SDS011;3200;48.204;11.576;2024-02-16T14:20:52;8.93;;;2.17;;
6334;SDS011;3200;48.204;11.576;2024-02-16T14:23:18;3.00;;;1.87;;
6334;SDS011;3200;48.204;11.576;2024-02-16T14:25:43;6.50;;;2.10;;
6334;SDS011;3200;48.204;11.576;2024-02-16T14:28:10;4.70;;;2.40;;
6334;SDS011;3200;48.204;11.576;2024-02-16T14:30:36;6.07;;;1.73;;
6334;SDS011;3200;48.204;11.576;2024-02-16T14:33:02;3.13;;;1.90;;
6334;SDS011;3200;48.204;11.576;2024-02-16T14:35:29;5.40;;;2.00;;
6334;SDS011;3200;48.204;11.576;2024-02-16T14:37:56;5.43;;;2.60;;
6334;SDS011;3200;48.204;11.576;2024-02-16T14:40:24;5.32;;;2.47;;
6334;SDS011;3200;48.204;11.576;2024-02-16T14:42:50;4.57;;;2.50;;
6334;SDS011;3200;48.204;11.576;2024-02-16T14:45:16;3.83;;;2.03;;
6334;SDS011;3200;48.204;11.576;2024-02-16T14:47:46;2.35;;;1.73;;
6334;SDS011;3200;48.204;11.576;2024-02-16T14:50:13;5.25;;;2.10;;
6334;SDS011;3200;48.204;11.576;2024-02-16T14:52:39;5.38;;;2.10;;
6334;SDS011;3200;48.204;11.576;2024-02-16T14:55:07;5.10;;;2.50;;
6334;SDS011;3200;48.204;11.576;2024-02-16T14:57:36;5.38;;;2.17;;
6334;SDS011;3200;48.204;11.576;2024-02-16T15:00:06;4.47;;;2.50;;
6334;SDS011;3200;48.204;11.576;2024-02-16T15:02:33;3.25;;;1.45;;
6334;SDS011;3200;48.204;11.576;2024-02-16T15:04:59;4.60;;;2.00;;
6334;SDS011;3200;48.204;11.576;2024-02-16T15:07:25;3.73;;;1.97;;
6334;SDS011;3200;48.204;11.576;2024-02-16T15:09:51;5.03;;;1.50;;